Time;durP1;ratioP1;P1;durP2;ratioP2;P2;SDS_P1;SDS_P2;PMS_P1;PMS_P2;Temp;Humidity;BMP_temperature;BMP_pressure;BME280_temperature;BME280_humidity;BME280_pressure;Samples;Min_cycle;Max_cycle;Signal;HPM_P1;HPM_P2
2022/05/07 00:02:13;;;;;;;6.00;5.07;;;10.20;99.90;;;;;;5093470;28;20723;-62
2022/05/07 00:04:42;;;;;;;9.23;5.90;;;10.30;99.90;;;;;;5093225;28;20228;-62
2022/05/07 00:07:09;;;;;;;6.20;5.57;;;10.30;99.90;;;;;;5093133;28;20231;-62
2022/05/07 00:09:36;;;;;;;6.13;5.07;;;10.20;99.90;;;;;;5093223;28;20231;-62
2022/05/07 00:12:04;;;;;;;6.57;4.77;;;10.20;99.90;;;;;;5092826;28;20232;-62
2022/05/07 00:14:31;;;;;;;7.10;5.33;;;10.20;99.90;;;;;;5093224;28;20315;-62
2022/05/07 00:19:43;;;;;;;7.00;5.53;;;10.20;99.90;;;;;;5093214;28;20316;-62
2022/05/07 00:22:09;;;;;;;6.03;4.87;;;10.20;99.90;;;;;;5093054;28;20690;-62
2022/05/07 00:24:36;;;;;;;7.37;4.73;;;10.20;99.90;;;;;;5093163;28;20228;-61
2022/05/07 00:27:03;;;;;;;7.27;6.10;;;10.10;99.90;;;;;;5092897;28;20634;-63
2022/05/07 00:29:30;;;;;;;5.37;4.77;;;10.20;99.90;;;;;;5093048;28;20212;-62
2022/05/07 00:31:56;;;;;;;6.00;5.23;;;10.20;99.90;;;;;;5092775;28;20204;-62
2022/05/07 00:34:24;;;;;;;5.83;4.87;;;10.10;99.90;;;;;;5092733;28;20228;-63
2022/05/07 00:36:52;;;;;;;5.67;5.10;;;10.10;99.90;;;;;;5092957;28;20479;-61
2022/05/07 00:39:19;;;;;;;6.47;5.10;;;10.10;99.90;;;;;;5092881;28;20273;-62
2022/05/07 00:41:45;;;;;;;6.67;5.33;;;10.00;99.90;;;;;;5092766;28;20211;-62
2022/05/07 00:44:12;;;;;;;6.60;5.30;;;10.00;99.90;;;;;;5092541;28;20637;-63
2022/05/07 00:46:39;;;;;;;8.37;5.10;;;10.00;99.90;;;;;;5092337;28;20211;-62
2022/05/07 00:49:06;;;;;;;8.93;5.47;;;9.90;99.90;;;;;;5092433;28;20204;-62
2022/05/07 00:51:35;;;;;;;10.47;5.27;;;9.90;99.90;;;;;;5092573;28;20660;-62
2022/05/07 00:54:07;;;;;;;6.97;4.77;;;9.80;99.90;;;;;;5092721;28;20232;-62
2022/05/07 00:56:36;;;;;;;6.70;5.47;;;9.70;99.90;;;;;;5092288;28;20212;-62
2022/05/07 00:59:03;;;;;;;8.30;5.30;;;9.70;99.90;;;;;;5092487;28;20699;-62
2022/05/07 01:01:30;;;;;;;9.83;5.13;;;9.60;99.90;;;;;;5092327;28;20621;-62
2022/05/07 01:03:58;;;;;;;7.27;5.17;;;9.60;99.90;;;;;;5092283;28;20657;-62
2022/05/07 01:06:24;;;;;;;6.43;5.23;;;9.60;99.90;;;;;;5092111;28;20207;-62
2022/05/07 01:08:51;;;;;;;7.93;7.13;;;9.60;99.90;;;;;;5092421;28;20299;-63
2022/05/07 01:11:20;;;;;;;8.67;6.83;;;9.60;99.90;;;;;;5092266;28;20258;-63
2022/05/07 01:13:47;;;;;;;6.67;5.70;;;9.60;99.90;;;;;;5092236;28;20235;-62
2022/05/07 01:16:15;;;;;;;7.07;5.13;;;9.60;99.90;;;;;;5091946;28;20204;-62
2022/05/07 01:18:42;;;;;;;6.30;5.17;;;9.70;99.90;;;;;;5092389;28;20204;-61
2022/05/07 01:21:12;;;;;;;5.60;5.00;;;9.60;99.90;;;;;;5092230;28;20231;-62
2022/05/07 01:23:40;;;;;;;11.90;5.40;;;9.60;99.90;;;;;;5091870;28;20719;-63
2022/05/07 01:26:06;;;;;;;9.43;5.00;;;9.60;99.90;;;;;;5092060;28;20212;-62
2022/05/07 01:28:33;;;;;;;8.30;4.80;;;9.70;99.90;;;;;;5091937;28;20286;-62
2022/05/07 01:31:00;;;;;;;4.97;4.37;;;9.70;99.90;;;;;;5092222;28;20208;-61
2022/05/07 01:33:27;;;;;;;8.37;5.13;;;9.70;99.90;;;;;;5091932;28;20715;-62
2022/05/07 01:35:53;;;;;;;5.87;5.00;;;9.60;99.90;;;;;;5092310;28;20204;-62
2022/05/07 01:38:21;;;;;;;6.17;4.77;;;9.60;99.90;;;;;;5091786;28;20277;-62
2022/05/07 01:40:48;;;;;;;6.03;4.70;;;9.50;99.90;;;;;;5092051;28;20224;-62
2022/05/07 01:43:15;;;;;;;5.73;5.07;;;9.50;99.90;;;;;;5091786;28;20220;-63
2022/05/07 01:45:41;;;;;;;6.80;5.00;;;9.40;99.90;;;;;;5092179;28;20199;-62
2022/05/07 01:48:10;;;;;;;8.47;5.10;;;9.40;99.90;;;;;;5091977;28;20204;-62
2022/05/07 01:50:38;;;;;;;8.77;4.97;;;9.30;99.90;;;;;;5091951;28;20196;-63
2022/05/07 01:53:06;;;;;;;6.37;4.87;;;9.30;99.90;;;;;;5091973;28;20228;-63
2022/05/07 01:55:34;;;;;;;6.23;5.00;;;9.30;99.90;;;;;;5091918;28;20208;-62
2022/05/07 01:58:02;;;;;;;7.50;4.87;;;9.30;99.90;;;;;;5091816;28;20200;-63
2022/05/07 02:00:30;;;;;;;7.77;4.83;;;9.30;99.90;;;;;;5091783;28;20224;-62
2022/05/07 02:02:57;;;;;;;6.17;4.93;;;9.30;99.90;;;;;;5092093;28;20683;-63
2022/05/07 02:05:25;;;;;;;5.00;4.50;;;9.20;99.90;;;;;;5091797;28;20235;-63
2022/05/07 02:07:52;;;;;;;6.03;4.93;;;9.20;99.90;;;;;;5091456;28;20696;-64
2022/05/07 02:10:19;;;;;;;5.83;4.93;;;9.20;99.90;;;;;;5091401;28;20616;-63
2022/05/07 02:12:47;;;;;;;6.00;5.03;;;9.20;99.90;;;;;;5091656;28;20247;-63
2022/05/07 02:15:14;;;;;;;7.10;5.07;;;9.30;99.90;;;;;;5091609;28;20212;-62
2022/05/07 02:17:40;;;;;;;6.00;4.53;;;9.30;99.90;;;;;;5091511;28;20285;-64
2022/05/07 02:20:08;;;;;;;7.37;4.70;;;9.20;99.90;;;;;;5091446;28;20232;-63
2022/05/07 02:22:35;;;;;;;6.43;4.63;;;9.10;99.90;;;;;;5091486;28;20239;-63
2022/05/07 02:25:02;;;;;;;5.33;4.47;;;9.10;99.90;;;;;;5091375;28;20588;-63
2022/05/07 02:27:29;;;;;;;7.60;5.00;;;9.10;99.90;;;;;;5091418;28;20204;-63
2022/05/07 02:29:57;;;;;;;8.87;4.80;;;9.10;99.90;;;;;;5091512;28;20197;-63
2022/05/07 02:32:24;;;;;;;6.53;4.73;;;9.10;99.90;;;;;;5091388;28;20208;-62
2022/05/07 02:34:51;;;;;;;5.80;4.23;;;9.00;99.90;;;;;;5093359;28;20672;-63
2022/05/07 02:37:17;;;;;;;7.47;5.00;;;9.00;99.90;;;;;;5094837;28;20624;-63
2022/05/07 02:39:44;;;;;;;4.83;4.43;;;9.00;99.90;;;;;;5094902;28;20265;-63
2022/05/07 02:44:56;;;;;;;6.23;4.40;;;8.90;99.90;;;;;;5095121;28;20281;-63
2022/05/07 02:47:23;;;;;;;5.67;4.87;;;8.90;99.90;;;;;;5094623;28;20208;-63
2022/05/07 02:49:51;;;;;;;5.10;4.70;;;8.80;99.90;;;;;;5094728;28;20208;-63
2022/05/07 02:52:18;;;;;;;8.03;4.73;;;8.80;99.90;;;;;;5094467;28;20733;-63
2022/05/07 02:54:44;;;;;;;7.07;4.60;;;8.80;99.90;;;;;;5095058;28;20299;-63
2022/05/07 02:57:11;;;;;;;5.27;4.77;;;8.80;99.90;;;;;;5094661;28;20216;-64
2022/05/07 02:59:38;;;;;;;6.20;4.97;;;8.80;99.90;;;;;;5094971;28;20211;-64
2022/05/07 03:02:07;;;;;;;5.97;4.87;;;8.70;99.90;;;;;;5094677;28;20211;-63
2022/05/07 03:04:33;;;;;;;5.60;4.97;;;8.70;99.90;;;;;;5094365;28;20267;-63
2022/05/07 03:07:00;;;;;;;6.50;4.53;;;8.60;99.90;;;;;;5094556;28;20208;-63
2022/05/07 03:09:27;;;;;;;5.77;4.40;;;8.50;99.90;;;;;;5094787;28;20208;-63
2022/05/07 03:11:54;;;;;;;6.30;5.13;;;8.50;99.90;;;;;;5094791;28;20200;-63
2022/05/07 03:14:20;;;;;;;5.47;4.40;;;8.50;99.90;;;;;;5094616;28;20605;-63
2022/05/07 03:16:48;;;;;;;5.53;4.97;;;8.40;99.90;;;;;;5094332;28;20261;-63
2022/05/07 03:19:16;;;;;;;7.93;4.97;;;8.30;99.90;;;;;;5094348;28;20200;-63
2022/05/07 03:21:43;;;;;;;6.80;4.80;;;8.30;99.90;;;;;;5094545;28;20486;-64
2022/05/07 03:24:10;;;;;;;5.70;4.70;;;8.20;99.90;;;;;;5094172;28;20394;-63
2022/05/07 03:26:36;;;;;;;6.07;4.40;;;8.20;99.90;;;;;;5094038;28;20230;-64
2022/05/07 03:29:03;;;;;;;5.00;4.50;;;8.20;99.90;;;;;;5094236;28;20215;-64
2022/05/07 03:31:30;;;;;;;7.07;5.20;;;8.20;99.90;;;;;;5093996;28;20249;-64
2022/05/07 03:33:56;;;;;;;6.40;4.83;;;8.20;99.90;;;;;;5094056;28;20235;-64
2022/05/07 03:36:25;;;;;;;5.90;5.07;;;8.20;99.90;;;;;;5093805;28;20265;-63
2022/05/07 03:38:51;;;;;;;6.40;4.70;;;8.20;99.90;;;;;;5094004;28;20205;-64
2022/05/07 03:41:19;;;;;;;6.83;4.30;;;8.10;99.90;;;;;;5093787;28;20224;-63
2022/05/07 03:43:45;;;;;;;7.60;4.40;;;8.10;99.90;;;;;;5093621;28;20220;-64
2022/05/07 03:46:12;;;;;;;6.90;4.73;;;8.10;99.90;;;;;;5093513;28;20209;-64
2022/05/07 03:48:39;;;;;;;7.30;4.47;;;8.00;99.90;;;;;;5093412;28;20668;-63
2022/05/07 03:51:06;;;;;;;8.23;5.70;;;8.00;99.90;;;;;;5093889;28;20277;-64
2022/05/07 03:53:33;;;;;;;5.40;4.90;;;7.90;99.90;;;;;;5093676;28;20230;-63
2022/05/07 03:56:00;;;;;;;5.47;4.70;;;7.90;99.90;;;;;;5093663;28;20212;-63
2022/05/07 03:58:28;;;;;;;6.83;4.67;;;7.80;99.90;;;;;;5093195;28;20672;-64
2022/05/07 04:00:56;;;;;;;7.17;4.33;;;7.80;99.90;;;;;;5093520;28;20228;-63
2022/05/07 04:03:23;;;;;;;5.17;4.57;;;7.80;99.90;;;;;;5093228;28;20707;-63
2022/05/07 04:05:50;;;;;;;4.73;4.30;;;7.80;99.90;;;;;;5093235;28;20599;-64
2022/05/07 04:08:17;;;;;;;5.37;4.67;;;7.80;99.90;;;;;;5093504;28;20208;-63
2022/05/07 04:10:46;;;;;;;6.40;4.47;;;7.70;99.90;;;;;;5093351;28;20272;-63
2022/05/07 04:13:13;;;;;;;5.83;4.70;;;7.70;99.90;;;;;;5092969;28;20232;-63
2022/05/07 04:15:40;;;;;;;7.10;4.60;;;7.70;99.90;;;;;;5093245;28;20204;-63
2022/05/07 04:18:07;;;;;;;4.80;4.30;;;7.80;99.90;;;;;;5092755;28;20210;-62
2022/05/07 04:20:34;;;;;;;6.07;4.83;;;8.00;99.90;;;;;;5093266;28;20319;-63
2022/05/07 04:23:02;;;;;;;6.60;4.87;;;8.10;99.90;;;;;;5093030;28;20228;-63
2022/05/07 04:25:29;;;;;;;5.60;4.97;;;8.10;99.90;;;;;;5093087;28;20208;-63
2022/05/07 04:27:58;;;;;;;6.70;4.50;;;8.20;99.90;;;;;;5093116;28;20205;-64
2022/05/07 04:30:25;;;;;;;5.17;4.40;;;8.20;99.90;;;;;;5093186;28;20208;-63
2022/05/07 04:32:52;;;;;;;5.33;4.60;;;8.30;99.90;;;;;;5093035;28;20224;-61
2022/05/07 04:35:19;;;;;;;5.87;4.60;;;8.30;99.90;;;;;;5093029;28;20204;-61
2022/05/07 04:37:45;;;;;;;5.37;4.40;;;8.30;99.90;;;;;;5092614;28;20204;-61
2022/05/07 04:40:13;;;;;;;8.70;4.60;;;8.40;99.90;;;;;;5092577;28;20257;-62
2022/05/07 04:42:41;;;;;;;9.33;4.53;;;8.60;99.90;;;;;;5092485;28;20716;-60
2022/05/07 04:45:10;;;;;;;7.47;4.40;;;8.70;99.90;;;;;;5092743;28;20205;-61
2022/05/07 04:47:36;;;;;;;6.30;4.63;;;8.90;99.90;;;;;;5092380;28;20212;-61
2022/05/07 04:50:04;;;;;;;6.10;4.87;;;9.00;99.90;;;;;;5092580;28;20204;-61
2022/05/07 04:52:30;;;;;;;6.77;4.23;;;9.20;99.90;;;;;;5092510;28;20201;-60
2022/05/07 04:54:57;;;;;;;8.33;4.60;;;9.40;99.90;;;;;;5092250;28;20582;-61
2022/05/07 04:57:24;;;;;;;5.37;4.40;;;9.50;99.90;;;;;;5091708;28;20202;-61
2022/05/07 04:59:50;;;;;;;6.63;5.03;;;9.70;99.90;;;;;;5092432;28;20234;-61
2022/05/07 05:02:18;;;;;;;4.90;4.40;;;9.90;99.90;;;;;;5092408;28;20224;-61
2022/05/07 05:04:45;;;;;;;8.50;5.03;;;10.00;99.90;;;;;;5092306;28;20204;-61
2022/05/07 05:07:12;;;;;;;7.13;4.70;;;10.10;99.90;;;;;;5092041;28;20417;-61
2022/05/07 05:09:38;;;;;;;7.13;4.30;;;10.20;99.90;;;;;;5092104;28;20215;-61
2022/05/07 05:12:06;;;;;;;5.90;4.30;;;10.30;99.90;;;;;;5092296;28;20208;-61
2022/05/07 05:17:18;;;;;;;5.07;4.47;;;10.60;99.90;;;;;;5091787;28;20198;-61
2022/05/07 05:19:45;;;;;;;5.17;4.50;;;10.80;99.90;;;;;;5091899;28;20676;-61
2022/05/07 05:22:11;;;;;;;5.03;4.47;;;10.90;99.90;;;;;;5091597;28;20224;-61
2022/05/07 05:24:38;;;;;;;6.73;4.63;;;11.00;99.90;;;;;;5091901;28;20228;-61
2022/05/07 05:27:05;;;;;;;5.50;4.70;;;11.20;99.90;;;;;;5091668;28;20211;-61
2022/05/07 05:29:32;;;;;;;7.77;4.90;;;11.30;99.90;;;;;;5091699;28;20207;-61
2022/05/07 05:31:59;;;;;;;7.30;5.17;;;11.40;99.90;;;;;;5091745;28;20321;-61
2022/05/07 05:34:27;;;;;;;7.70;4.80;;;11.70;99.90;;;;;;5091574;28;20240;-60
2022/05/07 05:36:54;;;;;;;7.83;5.17;;;12.60;99.90;;;;;;5091650;28;20307;-60
2022/05/07 05:39:21;;;;;;;5.10;4.60;;;14.60;99.90;;;;;;5091815;28;20261;-61
2022/05/07 05:41:48;;;;;;;4.40;3.83;;;16.50;99.90;;;;;;5091435;28;20691;-61
2022/05/07 05:44:14;;;;;;;4.40;3.63;;;18.40;99.90;;;;;;5091668;28;20216;-60
2022/05/07 05:46:41;;;;;;;4.93;3.75;;;20.00;99.90;;;;;;5091463;28;20200;-60
2022/05/07 05:49:08;;;;;;;3.65;3.05;;;21.40;99.90;;;;;;5091860;28;20214;-60
2022/05/07 05:51:36;;;;;;;8.50;3.38;;;22.80;99.90;;;;;;5091877;28;20208;-61
2022/05/07 05:54:03;;;;;;;3.95;3.40;;;24.00;98.30;;;;;;5091730;28;20670;-59
2022/05/07 05:56:29;;;;;;;6.32;3.50;;;25.00;94.70;;;;;;5091624;28;20204;-59
2022/05/07 05:58:56;;;;;;;8.52;3.60;;;25.90;93.00;;;;;;5091571;28;20204;-59
2022/05/07 06:01:23;;;;;;;5.05;3.58;;;26.60;90.10;;;;;;5091529;28;20310;-60
2022/05/07 06:03:50;;;;;;;4.18;3.22;;;27.40;85.60;;;;;;5091611;28;20300;-59
2022/05/07 06:06:17;;;;;;;7.55;4.40;;;28.20;82.50;;;;;;5091694;28;20216;-60
2022/05/07 06:08:46;;;;;;;6.50;3.58;;;28.90;76.20;;;;;;5092569;28;20265;-60
2022/05/07 06:11:13;;;;;;;5.38;3.55;;;29.20;71.90;;;;;;5095432;28;20652;-59
2022/05/07 06:13:41;;;;;;;3.63;3.08;;;29.10;71.80;;;;;;5095438;28;20224;-60
2022/05/07 06:16:08;;;;;;;5.18;3.38;;;29.40;71.60;;;;;;5095450;28;20208;-61
2022/05/07 06:18:34;;;;;;;4.55;3.30;;;30.20;67.70;;;;;;5095612;28;20236;-61
2022/05/07 06:21:03;;;;;;;4.30;3.25;;;31.10;63.80;;;;;;5095573;28;20257;-60
2022/05/07 06:23:29;;;;;;;3.97;3.00;;;31.90;61.80;;;;;;5095324;28;20224;-60
2022/05/07 06:28:42;;;;;;;13.98;11.57;;;33.30;57.40;;;;;;5094992;28;20199;-60
2022/05/07 06:31:10;;;;;;;5.65;3.25;;;33.80;55.00;;;;;;5095037;28;20239;-60
2022/05/07 06:33:38;;;;;;;4.65;3.70;;;34.40;53.00;;;;;;5095063;28;20351;-60
2022/05/07 06:36:05;;;;;;;6.07;4.00;;;34.40;51.70;;;;;;5095003;28;20208;-61
2022/05/07 06:38:32;;;;;;;5.03;3.78;;;33.80;52.20;;;;;;5094667;28;20208;-59
2022/05/07 06:41:02;;;;;;;4.85;3.33;;;33.80;52.30;;;;;;5094726;28;20208;-59
2022/05/07 06:43:29;;;;;;;4.00;3.60;;;33.80;51.00;;;;;;5095032;28;20285;-61
2022/05/07 06:45:56;;;;;;;8.10;4.75;;;34.30;50.80;;;;;;5094765;28;20291;-60
2022/05/07 06:48:23;;;;;;;6.30;3.63;;;34.80;50.30;;;;;;5094481;28;20204;-60
2022/05/07 06:50:50;;;;;;;3.60;3.30;;;34.70;48.80;;;;;;5094668;28;20200;-60
2022/05/07 06:53:17;;;;;;;5.32;3.70;;;34.50;49.90;;;;;;5094762;28;20289;-59
2022/05/07 06:55:56;;;;;;;4.20;3.33;;;34.50;48.20;;;;;;5094483;28;20204;-60
2022/05/07 06:58:25;;;;;;;5.28;3.15;;;33.20;49.60;;;;;;5094637;28;20208;-61
2022/05/07 07:00:52;;;;;;;6.50;5.07;;;32.90;50.50;;;;;;5094752;28;20203;-59
2022/05/07 07:03:19;;;;;;;10.23;4.45;;;33.80;50.20;;;;;;5094512;28;20232;-59
2022/05/07 07:05:47;;;;;;;5.50;3.70;;;34.70;48.80;;;;;;5094450;28;20208;-59
2022/05/07 07:08:14;;;;;;;9.52;5.03;;;35.10;47.70;;;;;;5094311;28;20208;-58
2022/05/07 07:10:40;;;;;;;4.68;3.28;;;35.60;48.10;;;;;;5094549;28;20249;-58
2022/05/07 07:13:07;;;;;;;7.03;3.42;;;35.90;46.50;;;;;;5094200;28;20220;-59
2022/05/07 07:15:39;;;;;;;5.18;3.38;;;35.40;47.00;;;;;;5094191;28;20204;-59
2022/05/07 07:18:09;;;;;;;6.55;3.17;;;34.00;48.10;;;;;;5094098;28;20204;-59
2022/05/07 07:20:37;;;;;;;5.15;3.22;;;33.70;48.70;;;;;;5093909;28;20208;-59
2022/05/07 07:23:04;;;;;;;5.43;3.47;;;35.00;47.40;;;;;;5094143;28;20580;-59
2022/05/07 07:25:31;;;;;;;5.75;3.38;;;36.00;45.60;;;;;;5094110;28;20208;-59
2022/05/07 07:27:58;;;;;;;4.53;3.50;;;36.00;44.80;;;;;;5094202;28;20254;-59
2022/05/07 07:30:25;;;;;;;4.43;3.33;;;34.20;47.10;;;;;;5094295;28;20747;-59
2022/05/07 07:32:53;;;;;;;6.32;3.30;;;32.40;49.90;;;;;;5093907;28;20216;-59
2022/05/07 07:35:19;;;;;;;6.50;3.30;;;32.30;50.00;;;;;;5093457;28;20675;-60
2022/05/07 07:37:46;;;;;;;9.13;8.20;;;33.50;48.90;;;;;;5093239;28;20212;-59
2022/05/07 07:40:13;;;;;;;5.32;3.35;;;34.70;47.20;;;;;;5093543;28;20207;-60
2022/05/07 07:42:41;;;;;;;6.18;3.17;;;35.80;45.20;;;;;;5093465;28;20228;-59
2022/05/07 07:47:57;;;;;;;5.10;3.60;;;34.70;46.10;;;;;;5093436;28;20198;-59
2022/05/07 07:50:24;;;;;;;5.22;3.55;;;34.10;46.70;;;;;;5093806;28;20232;-59
2022/05/07 07:52:53;;;;;;;9.38;3.72;;;32.40;49.40;;;;;;5093712;28;20220;-59
2022/05/07 07:55:20;;;;;;;6.10;3.70;;;30.80;52.10;;;;;;5093602;28;20629;-59
2022/05/07 07:57:46;;;;;;;6.60;3.42;;;31.80;51.00;;;;;;5093159;28;20221;-59
2022/05/07 08:00:14;;;;;;;5.05;3.63;;;33.10;48.80;;;;;;5093440;28;20211;-59
2022/05/07 08:02:47;;;;;;;7.70;3.72;;;32.90;49.40;;;;;;5093841;28;20244;-60
2022/05/07 08:05:17;;;;;;;6.47;3.85;;;32.40;50.70;;;;;;5093426;28;20290;-60
2022/05/07 08:13:13;;;;;;;5.85;3.67;;;35.30;46.80;;;;;;5093097;28;20265;-60
2022/05/07 08:15:40;;;;;;;5.75;3.70;;;36.40;46.10;;;;;;5093047;28;20797;-59
2022/05/07 08:18:07;;;;;;;5.35;4.07;;;35.90;46.10;;;;;;5092880;28;20624;-59
2022/05/07 08:20:35;;;;;;;4.90;4.18;;;34.30;48.20;;;;;;5093088;28;20277;-59
2022/05/07 08:23:01;;;;;;;6.80;3.95;;;33.80;48.70;;;;;;5092763;28;20251;-60
2022/05/07 08:25:28;;;;;;;5.97;4.47;;;34.20;48.50;;;;;;5092656;28;20204;-59
2022/05/07 08:27:55;;;;;;;6.15;3.83;;;34.40;47.90;;;;;;5092622;28;20208;-59
2022/05/07 08:30:22;;;;;;;5.10;3.80;;;33.30;49.30;;;;;;5093078;28;20204;-59
2022/05/07 08:32:48;;;;;;;6.15;4.50;;;31.90;51.10;;;;;;5092047;28;20227;-60
2022/05/07 08:35:15;;;;;;;6.65;4.45;;;30.70;52.40;;;;;;5092114;28;20204;-60
2022/05/07 08:37:43;;;;;;;5.43;4.20;;;29.60;54.00;;;;;;5092203;28;20200;-60
2022/05/07 08:40:14;;;;;;;6.68;4.57;;;28.70;55.80;;;;;;5093145;28;20581;-59
2022/05/07 08:42:41;;;;;;;8.18;5.07;;;27.30;58.50;;;;;;5093244;28;20227;-59
2022/05/07 08:45:09;;;;;;;7.40;5.03;;;25.80;62.20;;;;;;5092899;28;20294;-59
2022/05/07 08:47:36;;;;;;;4.65;4.13;;;24.50;65.30;;;;;;5092865;28;20265;-59
2022/05/07 08:50:03;;;;;;;4.78;3.60;;;23.80;65.10;;;;;;5092660;28;20625;-59
2022/05/07 08:52:30;;;;;;;5.38;4.55;;;23.40;65.60;;;;;;5092380;28;20245;-59
2022/05/07 08:54:59;;;;;;;6.53;5.22;;;23.10;68.80;;;;;;5092394;28;20214;-59
2022/05/07 08:57:26;;;;;;;9.68;4.70;;;22.90;70.10;;;;;;5092289;28;20204;-59
2022/05/07 08:59:52;;;;;;;7.18;4.53;;;22.80;71.40;;;;;;5092784;28;20294;-59
2022/05/07 09:02:20;;;;;;;5.78;4.18;;;22.60;71.70;;;;;;5092308;28;20220;-60
2022/05/07 09:04:55;;;;;;;6.63;4.03;;;22.40;70.20;;;;;;5091982;28;20204;-59
2022/05/07 09:07:22;;;;;;;4.20;3.45;;;21.90;71.30;;;;;;5092333;28;20671;-60
2022/05/07 09:09:50;;;;;;;4.57;3.38;;;21.60;71.80;;;;;;5092335;28;20200;-60
2022/05/07 09:12:24;;;;;;;5.00;3.47;;;21.50;71.70;;;;;;5092243;28;20295;-60
2022/05/07 09:14:51;;;;;;;4.90;2.40;;;21.40;71.60;;;;;;5092386;28;20600;-64
2022/05/07 09:17:19;;;;;;;3.25;2.30;;;21.30;68.00;;;;;;5092226;28;20261;-60
2022/05/07 09:19:46;;;;;;;5.15;2.40;;;21.10;66.50;;;;;;5092508;28;20665;-60
2022/05/07 09:22:13;;;;;;;2.63;2.13;;;21.00;67.30;;;;;;5092260;28;20297;-60
2022/05/07 09:24:41;;;;;;;3.42;2.00;;;20.90;66.50;;;;;;5092349;28;20224;-60
2022/05/07 09:27:07;;;;;;;7.72;2.30;;;21.00;66.30;;;;;;5092034;28;20242;-60
2022/05/07 09:29:36;;;;;;;6.03;2.53;;;21.10;66.80;;;;;;5092015;28;20227;-60
2022/05/07 09:32:10;;;;;;;4.85;2.47;;;21.30;66.30;;;;;;5091978;28;20291;-60
2022/05/07 09:37:34;;;;;;;4.68;2.10;;;21.70;63.30;;;;;;5092195;28;20662;-60
2022/05/07 09:40:05;;;;;;;4.35;2.33;;;22.00;61.60;;;;;;5092253;28;20211;-60
2022/05/07 09:42:33;;;;;;;4.93;2.15;;;22.30;62.30;;;;;;5092090;28;20223;-60
2022/05/07 09:45:02;;;;;;;3.38;2.20;;;22.70;63.20;;;;;;5096320;28;20200;-60
2022/05/07 09:47:29;;;;;;;2.47;1.77;;;23.00;59.00;;;;;;5095835;28;20739;-60
2022/05/07 09:57:30;;;;;;;3.45;2.10;;;23.10;57.80;;;;;;5096185;28;20213;-60
2022/05/07 09:58:17;;;;;;;3.08;1.50;;;23.90;57.00;;;;;;5095708;28;20714;-60
2022/05/07 10:00:57;;;;;;;3.63;1.80;;;24.00;55.70;;;;;;5095778;28;20200;-60
2022/05/07 10:03:29;;;;;;;3.58;1.70;;;24.00;56.50;;;;;;5095260;28;20227;-60
2022/05/07 10:06:06;;;;;;;5.32;2.67;;;23.90;57.00;;;;;;5095783;28;20207;-61
2022/05/07 10:08:45;;;;;;;3.53;3.10;;;23.90;63.00;;;;;;5095372;28;20257;-61
2022/05/07 10:11:14;;;;;;;3.83;2.95;;;23.90;66.30;;;;;;5095601;28;20204;-60
2022/05/07 10:13:41;;;;;;;6.88;3.40;;;23.80;65.70;;;;;;5095447;28;20700;-60
2022/05/07 10:16:19;;;;;;;6.00;2.45;;;23.90;66.70;;;;;;5095678;28;20204;-60
2022/05/07 10:18:46;;;;;;;5.30;2.80;;;24.20;65.20;;;;;;5095596;28;20211;-61
2022/05/07 10:21:15;;;;;;;6.93;2.72;;;24.40;65.00;;;;;;5095542;28;20215;-61
2022/05/07 10:23:52;;;;;;;3.63;2.55;;;24.30;63.40;;;;;;5095559;28;20237;-60
2022/05/07 10:26:20;;;;;;;8.30;3.08;;;24.10;64.00;;;;;;5095719;28;20200;-60
2022/05/07 10:28:47;;;;;;;3.80;2.92;;;23.90;63.20;;;;;;5095495;28;20215;-60
2022/05/07 10:31:20;;;;;;;3.05;2.53;;;23.80;64.00;;;;;;5095698;28;20208;-60
2022/05/07 10:33:47;;;;;;;4.80;2.70;;;23.80;62.70;;;;;;5095493;28;20281;-60
2022/05/07 10:36:15;;;;;;;4.72;2.35;;;24.10;64.50;;;;;;5095452;28;20203;-60
2022/05/07 10:38:45;;;;;;;2.70;2.10;;;24.30;62.00;;;;;;5094867;28;20496;-60
2022/05/07 10:41:24;;;;;;;3.58;2.40;;;24.10;61.70;;;;;;5095344;28;20608;-60
2022/05/07 10:44:03;;;;;;;5.10;2.35;;;23.90;62.70;;;;;;5094910;28;20228;-67
2022/05/07 10:46:42;;;;;;;4.25;2.20;;;23.90;61.90;;;;;;5095193;28;20341;-64
2022/05/07 10:49:09;;;;;;;5.38;1.90;;;24.10;61.00;;;;;;5094836;28;20212;-63
2022/05/07 10:51:37;;;;;;;3.38;2.28;;;24.20;60.90;;;;;;5095330;28;20208;-67
2022/05/07 10:54:19;;;;;;;4.57;2.10;;;23.90;59.80;;;;;;5095022;28;20227;-68
2022/05/07 10:56:50;;;;;;;4.03;1.95;;;23.60;60.70;;;;;;5095603;28;20193;-62
2022/05/07 10:59:17;;;;;;;3.70;1.90;;;23.70;61.60;;;;;;5094481;28;20207;-62
2022/05/07 11:01:45;;;;;;;4.72;1.80;;;23.80;60.20;;;;;;5094468;28;20204;-61
2022/05/07 11:04:13;;;;;;;2.75;1.70;;;23.70;59.00;;;;;;5094119;28;20247;-61
2022/05/07 11:06:47;;;;;;;4.50;1.98;;;23.60;58.50;;;;;;5094698;28;20247;-62
2022/05/07 11:09:16;;;;;;;3.65;1.77;;;23.50;57.70;;;;;;5094239;28;20200;-62
2022/05/07 11:11:45;;;;;;;2.72;1.77;;;23.30;58.20;;;;;;5094495;28;20258;-61
2022/05/07 11:14:21;;;;;;;1.58;1.38;;;23.30;58.70;;;;;;5094454;28;20255;-62
2022/05/07 11:16:49;;;;;;;3.20;1.95;;;23.30;58.30;;;;;;5094536;28;20257;-62
2022/05/07 11:19:25;;;;;;;2.95;1.85;;;23.30;58.60;;;;;;5094752;28;20200;-62
2022/05/07 11:21:52;;;;;;;4.50;2.15;;;23.50;57.60;;;;;;5094814;28;20204;-62
2022/05/07 11:24:20;;;;;;;2.83;1.52;;;23.90;57.50;;;;;;5094365;28;20316;-61
2022/05/07 11:26:51;;;;;;;4.53;1.73;;;24.10;56.80;;;;;;5094243;28;20215;-61
2022/05/07 11:29:18;;;;;;;3.70;1.45;;;24.00;56.80;;;;;;5094539;28;20683;-67
2022/05/07 11:31:56;;;;;;;4.88;1.67;;;23.90;57.60;;;;;;5094337;28;20204;-61
2022/05/07 11:34:31;;;;;;;5.93;1.80;;;23.60;56.90;;;;;;5094308;28;20224;-61
2022/05/07 11:37:09;;;;;;;2.00;1.40;;;23.50;56.20;;;;;;5094155;28;20659;-60
2022/05/07 11:39:46;;;;;;;4.25;1.63;;;23.30;56.20;;;;;;5094381;28;20208;-59
2022/05/07 11:42:12;;;;;;;2.92;1.63;;;23.30;56.30;;;;;;5094006;28;20207;-60
2022/05/07 11:47:24;;;;;;;3.22;1.60;;;23.70;56.50;;;;;;5093527;28;20195;-59
2022/05/07 11:50:07;;;;;;;5.00;1.50;;;23.90;55.60;;;;;;5094281;28;20200;-62
2022/05/07 11:52:34;;;;;;;3.70;1.70;;;24.00;55.90;;;;;;5093741;28;20621;-66
2022/05/07 11:55:05;;;;;;;2.65;1.48;;;24.40;56.10;;;;;;5093892;28;20308;-59
2022/05/07 11:57:33;;;;;;;4.10;1.48;;;24.70;56.50;;;;;;5093747;28;20236;-59
2022/05/07 12:00:17;;;;;;;4.85;1.50;;;24.60;55.50;;;;;;5093880;28;20204;-59
2022/05/07 12:02:56;;;;;;;4.78;1.75;;;24.30;54.90;;;;;;5093339;28;20232;-59
2022/05/07 12:05:24;;;;;;;2.58;1.42;;;24.00;55.90;;;;;;5093258;28;20215;-58
2022/05/07 12:07:51;;;;;;;1.50;1.33;;;23.70;56.00;;;;;;5092019;28;20215;-59
2022/05/07 12:10:20;;;;;;;2.70;1.20;;;23.60;55.50;;;;;;5093054;28;20204;-59
2022/05/07 12:12:48;;;;;;;3.80;1.55;;;23.50;55.80;;;;;;5093116;28;20227;-59
2022/05/07 12:15:15;;;;;;;3.63;1.85;;;23.60;56.20;;;;;;5093272;28;20261;-60
2022/05/07 12:17:53;;;;;;;4.13;1.58;;;23.80;55.60;;;;;;5093134;28;20562;-59
2022/05/07 12:20:22;;;;;;;4.65;1.40;;;24.00;54.80;;;;;;5092891;28;20208;-59
2022/05/07 12:31:02;;;;;;;3.55;1.45;;;24.60;54.60;;;;;;5092842;28;20631;-59
2022/05/07 12:33:29;;;;;;;1.92;1.30;;;25.00;53.10;;;;;;5092509;28;20220;-59
2022/05/07 12:35:57;;;;;;;3.33;1.45;;;25.20;52.90;;;;;;5092818;28;20207;-59
2022/05/07 12:38:23;;;;;;;2.25;1.35;;;25.20;52.70;;;;;;5092385;28;20204;-59
2022/05/07 12:40:50;;;;;;;1.73;1.10;;;24.90;53.30;;;;;;5092640;28;20340;-59
2022/05/07 12:43:17;;;;;;;1.48;1.20;;;24.70;53.30;;;;;;5092342;28;20231;-59
2022/05/07 12:45:43;;;;;;;4.70;1.50;;;24.70;53.30;;;;;;5092483;28;20216;-59
2022/05/07 12:48:10;;;;;;;2.88;1.10;;;24.60;53.60;;;;;;5092406;28;20397;-59
2022/05/07 12:50:37;;;;;;;3.40;1.77;;;24.50;54.60;;;;;;5092548;28;20659;-59
2022/05/07 12:53:05;;;;;;;2.80;1.23;;;24.30;54.00;;;;;;5092518;28;20220;-59
2022/05/07 12:55:32;;;;;;;2.88;1.30;;;24.20;53.80;;;;;;5092608;28;20207;-59
2022/05/07 12:57:59;;;;;;;2.78;1.45;;;24.40;53.40;;;;;;5092031;28;20212;-59
2022/05/07 13:00:26;;;;;;;3.03;1.50;;;24.50;53.50;;;;;;5092638;28;20564;-59
2022/05/07 13:02:55;;;;;;;5.15;1.70;;;24.60;52.60;;;;;;5091865;28;20723;-59
2022/05/07 13:05:22;;;;;;;3.75;1.50;;;24.60;52.80;;;;;;5092363;28;20208;-59
2022/05/07 13:07:49;;;;;;;2.35;1.40;;;24.80;52.50;;;;;;5092020;28;20208;-59
2022/05/07 13:10:17;;;;;;;2.88;1.23;;;24.90;52.40;;;;;;5091959;28;20208;-59
2022/05/07 13:12:46;;;;;;;2.63;1.60;;;25.10;52.40;;;;;;5091856;28;20319;-59
2022/05/07 13:15:12;;;;;;;5.15;1.55;;;25.30;52.10;;;;;;5092144;28;20208;-59
2022/05/07 13:17:39;;;;;;;3.55;1.75;;;25.40;51.90;;;;;;5091581;28;20204;-60
2022/05/07 13:20:08;;;;;;;4.25;1.50;;;25.60;51.50;;;;;;5091759;28;20208;-59
2022/05/07 13:22:35;;;;;;;3.05;1.50;;;25.60;51.70;;;;;;5091879;28;20299;-59
2022/05/07 13:25:01;;;;;;;3.20;1.60;;;25.40;51.90;;;;;;5091709;28;20232;-59
2022/05/07 13:27:30;;;;;;;3.45;1.17;;;25.00;52.80;;;;;;5091583;28;20212;-59
2022/05/07 13:29:59;;;;;;;3.55;1.90;;;24.80;53.70;;;;;;5071851;28;20220;-59
2022/05/07 13:32:25;;;;;;;3.30;1.52;;;24.80;54.50;;;;;;5071845;28;20270;-59
2022/05/07 13:34:52;;;;;;;4.28;1.80;;;25.00;53.60;;;;;;5072310;28;20259;-59